Time;durP1;ratioP1;P1;durP2;ratioP2;P2;SDS_P1;SDS_P2;PMS_P1;PMS_P2;Temp;Humidity;BMP_temperature;BMP_pressure;BME280_temperature;BME280_humidity;BME280_pressure;Samples;Min_cycle;Max_cycle;Signal;HPM_P1;HPM_P2
2022/11/15 00:00:05;;;;;;;32.40;28.80;;;;;;;7.73;100.00;100808.63;5218062;28;20097;-82
2022/11/15 00:02:36;;;;;;;30.80;28.05;;;;;;;7.79;100.00;100802.31;5216648;28;20025;-83
2022/11/15 00:05:07;;;;;;;29.95;27.38;;;;;;;7.80;100.00;100810.09;5216894;28;20025;-84
2022/11/15 00:07:37;;;;;;;38.55;35.05;;;;;;;7.92;100.00;100820.00;5216930;28;20036;-81
2022/11/15 00:10:08;;;;;;;36.47;33.13;;;;;;;7.52;100.00;100766.25;5237530;28;20394;-82
2022/11/15 00:12:38;;;;;;;33.00;29.75;;;;;;;7.90;100.00;100825.63;5236126;28;20021;-82
2022/11/15 00:15:08;;;;;;;28.48;25.85;;;;;;;7.87;100.00;100818.03;5216969;28;20017;-82
2022/11/15 00:17:39;;;;;;;28.95;26.02;;;;;;;7.84;100.00;100802.38;5236241;28;20047;-84
2022/11/15 00:20:10;;;;;;;29.52;26.67;;;;;;;7.93;100.00;100814.41;5235212;28;20483;-82
2022/11/15 00:22:40;;;;;;;27.17;24.52;;;;;;;7.99;100.00;100813.44;5236327;28;20036;-85
2022/11/15 00:25:10;;;;;;;44.50;25.38;;;;;;;8.11;100.00;100822.25;5237227;28;20021;-82
2022/11/15 00:27:41;;;;;;;27.80;25.13;;;;;;;8.08;100.00;100820.06;5220771;28;20040;-83
2022/11/15 00:30:12;;;;;;;28.75;26.05;;;;;;;8.19;100.00;100822.94;5237099;28;20029;-82
2022/11/15 00:32:42;;;;;;;28.85;26.00;;;;;;;8.07;100.00;100814.94;5237465;28;20499;-82
2022/11/15 00:35:13;;;;;;;31.75;28.33;;;;;;;8.07;100.00;100796.94;5236785;28;20028;-82
2022/11/15 00:37:43;;;;;;;31.80;28.55;;;;;;;8.12;100.00;100807.75;5219740;28;20025;-83
2022/11/15 00:40:14;;;;;;;37.50;34.30;;;;;;;8.06;100.00;100786.41;5236554;28;20085;-82
2022/11/15 00:42:45;;;;;;;60.45;54.50;;;;;;;8.22;100.00;100811.69;5217107;28;20043;-82
2022/11/15 00:45:16;;;;;;;57.38;52.33;;;;;;;8.24;100.00;100796.94;5234726;28;20092;-83
2022/11/15 00:47:47;;;;;;;49.03;44.78;;;;;;;8.28;100.00;100803.50;5216662;28;20025;-82
2022/11/15 00:50:18;;;;;;;36.90;33.42;;;;;;;8.27;100.00;100792.97;5234013;28;20051;-83
2022/11/15 00:52:48;;;;;;;32.65;29.90;;;;;;;8.44;100.00;100816.16;5216793;28;20029;-82
2022/11/15 00:55:19;;;;;;;29.88;27.25;;;;;;;8.52;100.00;100824.91;5216450;28;20024;-83
2022/11/15 00:57:49;;;;;;;32.90;29.73;;;;;;;8.17;100.00;100768.56;5234720;28;20025;-83
2022/11/15 01:00:20;;;;;;;25.98;23.75;;;;;;;8.52;100.00;100822.22;5236721;28;20051;-81
2022/11/15 01:02:50;;;;;;;26.42;23.73;;;;;;;8.52;100.00;100823.03;5220623;28;20549;-82
2022/11/15 01:05:21;;;;;;;23.00;21.08;;;;;;;8.45;100.00;100800.84;5237389;28;20033;-83
2022/11/15 01:07:55;;;;;;;27.10;24.38;;;;;;;8.59;100.00;100821.00;5237267;28;20024;-82
2022/11/15 01:10:26;;;;;;;26.73;24.35;;;;;;;8.48;100.00;100805.72;5219065;28;20040;-83
2022/11/15 01:12:57;;;;;;;30.20;27.40;;;;;;;8.54;100.00;100815.53;5220214;28;20020;-82
2022/11/15 01:15:27;;;;;;;26.33;23.98;;;;;;;8.62;100.00;100812.44;5219646;28;20029;-82
2022/11/15 01:17:57;;;;;;;26.90;24.00;;;;;;;8.58;100.00;100808.59;5226561;28;20056;-82
2022/11/15 01:20:28;;;;;;;25.77;23.17;;;;;;;8.72;100.00;100822.53;5229350;28;20025;-82
2022/11/15 01:22:58;;;;;;;24.02;21.90;;;;;;;8.74;100.00;100829.31;5247122;28;20241;-82
2022/11/15 01:25:28;;;;;;;25.92;23.77;;;;;;;8.77;100.00;100822.63;5244910;28;20509;-80
2022/11/15 01:27:59;;;;;;;26.15;23.63;;;;;;;8.64;100.00;100793.38;5243580;28;20096;-83
2022/11/15 01:30:29;;;;;;;29.25;26.30;;;;;;;8.62;100.00;100785.53;5245034;22;20140;-70
2022/11/15 01:33:06;;;;;;;28.88;24.52;;;;;;;8.83;100.00;100813.59;5225716;28;20079;-71
2022/11/15 01:35:39;;;;;;;24.52;22.40;;;;;;;8.85;100.00;100803.38;5226476;28;20056;-71
2022/11/15 01:38:10;;;;;;;30.50;27.40;;;;;;;8.87;100.00;100800.44;5226113;28;20098;-70
2022/11/15 01:40:41;;;;;;;25.08;22.50;;;;;;;8.83;100.00;100789.34;5226254;28;20029;-73
2022/11/15 01:43:29;;;;;;;25.95;23.48;;;;;;;8.90;100.00;100802.66;5226606;28;20029;-70
2022/11/15 01:46:22;;;;;;;26.23;23.83;;;;;;;8.92;100.00;100795.97;5226474;28;20031;-70
2022/11/15 01:48:56;;;;;;;26.45;24.23;;;;;;;8.81;100.00;100772.63;5226610;28;20082;-71
2022/11/15 01:51:29;;;;;;;24.67;22.58;;;;;;;8.96;100.00;100794.38;5228007;28;20024;-72
2022/11/15 01:54:04;;;;;;;27.38;24.42;;;;;;;8.95;100.00;100787.34;5214580;28;20033;-68
2022/11/15 01:56:42;;;;;;;26.27;23.58;;;;;;;8.86;100.00;100763.81;5207209;28;20048;-67
2022/11/15 01:59:13;;;;;;;26.48;23.88;;;;;;;8.97;100.00;100787.13;5205734;28;20194;-70
2022/11/15 02:01:44;;;;;;;26.30;23.60;;;;;;;9.00;100.00;100792.81;5205621;28;20043;-69
2022/11/15 02:04:25;;;;;;;24.35;22.17;;;;;;;9.02;100.00;100784.50;5205388;28;20021;-68
2022/11/15 02:06:56;;;;;;;27.00;24.52;;;;;;;9.05;100.00;100778.63;5205413;28;20040;-69
2022/11/15 02:09:26;;;;;;;25.23;23.13;;;;;;;9.01;100.00;100769.41;5205409;28;20025;-68
2022/11/15 02:11:59;;;;;;;23.40;21.15;;;;;;;9.12;100.00;100784.66;5204284;28;20029;-69
2022/11/15 02:14:31;;;;;;;26.40;24.08;;;;;;;8.92;100.00;100744.78;5205156;28;20041;-68
2022/11/15 02:17:33;;;;;;;27.63;25.02;;;;;;;9.24;100.00;100784.56;5205289;28;20025;-68
2022/11/15 02:20:07;;;;;;;25.75;23.58;;;;;;;9.30;100.00;100775.44;5205248;28;20112;-69
2022/11/15 02:22:47;;;;;;;25.17;22.55;;;;;;;9.31;100.00;100772.50;5206635;28;20147;-69
2022/11/15 02:25:27;;;;;;;25.70;23.08;;;;;;;9.33;100.00;100767.69;5204950;28;20036;-69
2022/11/15 02:28:23;;;;;;;25.10;22.58;;;;;;;9.34;100.00;100771.19;5205002;28;20021;-69
2022/11/15 02:31:31;;;;;;;27.30;24.60;;;;;;;9.37;100.00;100768.00;5204858;28;20075;-69
2022/11/15 02:34:39;;;;;;;26.23;23.98;;;;;;;9.42;100.00;100762.69;5204779;28;20367;-69
2022/11/15 02:37:09;;;;;;;27.88;25.55;;;;;;;9.41;100.00;100764.56;5204829;28;20079;-69
2022/11/15 02:39:46;;;;;;;26.98;24.42;;;;;;;9.41;100.00;100767.25;5204587;28;20025;-69
2022/11/15 02:45:26;;;;;;;29.23;26.20;;;;;;;9.42;100.00;100757.31;5206003;28;20063;-69
2022/11/15 02:48:00;;;;;;;28.33;25.00;;;;;;;9.41;100.00;100751.09;5204681;28;20128;-68
2022/11/15 02:50:33;;;;;;;27.42;24.55;;;;;;;9.33;100.00;100729.97;5204746;28;20029;-69
2022/11/15 02:53:03;;;;;;;29.45;26.67;;;;;;;9.49;100.00;100749.84;5204463;28;20394;-69
2022/11/15 02:55:41;;;;;;;28.05;25.23;;;;;;;9.38;100.00;100724.63;5204294;28;20037;-69
2022/11/15 02:58:30;;;;;;;25.55;22.92;;;;;;;9.53;100.00;100736.69;5204725;28;20063;-69
2022/11/15 03:01:36;;;;;;;27.30;24.85;;;;;;;9.53;100.00;100725.91;5204589;28;20506;-68
2022/11/15 03:04:15;;;;;;;30.10;27.38;;;;;;;9.51;100.00;100725.34;5204340;28;20374;-69
2022/11/15 03:07:11;;;;;;;28.48;25.70;;;;;;;9.50;100.00;100723.72;5204236;28;20065;-68
2022/11/15 03:09:42;;;;;;;26.92;24.38;;;;;;;9.50;100.00;100721.00;5203768;28;20072;-69
2022/11/15 03:12:36;;;;;;;28.90;26.13;;;;;;;9.48;100.00;100719.38;5204464;28;20029;-69
2022/11/15 03:15:19;;;;;;;26.60;24.08;;;;;;;9.31;100.00;100697.06;5204126;28;20021;-68
2022/11/15 03:18:04;;;;;;;27.92;25.48;;;;;;;9.42;100.00;100708.78;5204311;28;20033;-69
2022/11/15 03:20:36;;;;;;;27.33;25.20;;;;;;;9.46;100.00;100720.69;5204198;28;20028;-70
2022/11/15 03:23:10;;;;;;;28.02;25.23;;;;;;;9.41;100.00;100724.13;5203866;28;20037;-69
2022/11/15 03:25:43;;;;;;;29.70;26.85;;;;;;;9.45;100.00;100719.88;5203872;28;20378;-69
2022/11/15 03:28:20;;;;;;;29.40;26.73;;;;;;;9.35;100.00;100706.28;5204064;28;20087;-70
2022/11/15 03:30:54;;;;;;;31.15;27.95;;;;;;;9.51;100.00;100728.03;5203929;28;20026;-69
2022/11/15 03:33:25;;;;;;;29.27;26.23;;;;;;;9.52;100.00;100740.44;5204921;28;20044;-71
2022/11/15 03:35:56;;;;;;;30.00;26.83;;;;;;;9.55;100.00;100734.53;5203346;28;20112;-69
2022/11/15 03:38:31;;;;;;;31.75;28.83;;;;;;;9.59;100.00;100739.16;5204053;28;20505;-69
2022/11/15 03:41:10;;;;;;;29.88;27.02;;;;;;;9.61;100.00;100745.13;5203908;28;20036;-68
2022/11/15 03:43:52;;;;;;;27.77;25.00;;;;;;;9.60;100.00;100742.69;5203440;28;20029;-69
2022/11/15 03:46:29;;;;;;;28.67;25.90;;;;;;;9.62;100.00;100733.28;5203043;28;20026;-70
2022/11/15 03:49:09;;;;;;;28.10;25.45;;;;;;;9.45;100.00;100708.28;5203666;28;20017;-70
2022/11/15 03:51:40;;;;;;;30.95;27.73;;;;;;;9.58;100.00;100734.03;5203462;28;20025;-69
2022/11/15 03:54:12;;;;;;;28.00;25.02;;;;;;;9.55;100.00;100729.13;5203314;28;20033;-70
2022/11/15 03:56:42;;;;;;;27.98;25.17;;;;;;;9.52;100.00;100725.09;5203463;28;20033;-70
2022/11/15 03:59:13;;;;;;;31.20;26.52;;;;;;;9.48;100.00;100722.06;5203057;28;20056;-70
2022/11/15 04:01:43;;;;;;;28.90;26.35;;;;;;;9.51;100.00;100738.81;5203358;28;20533;-69
2022/11/15 04:04:13;;;;;;;32.42;29.83;;;;;;;9.54;100.00;100743.66;5203258;28;20033;-69
2022/11/15 04:06:44;;;;;;;29.70;26.02;;;;;;;9.53;100.00;100732.06;5203414;28;20029;-72
2022/11/15 04:09:14;;;;;;;30.58;26.50;;;;;;;9.58;100.00;100740.22;5203253;28;20026;-73
2022/11/15 04:11:45;;;;;;;29.15;26.35;;;;;;;9.50;100.00;100726.41;5203262;28;20497;-70
2022/11/15 04:14:15;;;;;;;28.40;25.67;;;;;;;9.59;100.00;100741.03;5204515;28;20021;-69
2022/11/15 04:16:46;;;;;;;29.10;26.05;;;;;;;9.57;100.00;100737.78;5203352;28;20026;-71
2022/11/15 04:24:56;;;;;;;28.17;24.58;;;;;;;9.65;100.00;100742.75;5204412;28;20056;-71
2022/11/15 04:27:27;;;;;;;26.67;23.83;;;;;;;9.58;100.00;100728.63;5203032;28;20034;-68
2022/11/15 04:29:57;;;;;;;24.25;22.05;;;;;;;9.59;100.00;100730.25;5204121;28;20025;-71
2022/11/15 04:32:28;;;;;;;23.75;21.85;;;;;;;9.64;100.00;100735.72;5203084;28;20033;-69
2022/11/15 04:34:58;;;;;;;26.02;23.27;;;;;;;9.56;100.00;100723.50;5203922;28;20500;-71
2022/11/15 04:37:29;;;;;;;27.95;25.17;;;;;;;9.63;100.00;100736.78;5207157;28;20029;-69
2022/11/15 04:39:59;;;;;;;23.33;21.25;;;;;;;9.65;100.00;100746.25;5208330;28;20457;-69
2022/11/15 04:42:29;;;;;;;23.92;21.83;;;;;;;9.62;100.00;100735.16;5207107;28;20037;-69
2022/11/15 04:45:00;;;;;;;24.40;22.33;;;;;;;9.44;100.00;100718.25;5207229;28;20051;-68
2022/11/15 04:47:30;;;;;;;24.70;22.33;;;;;;;9.53;100.00;100729.38;5206954;28;20397;-74
2022/11/15 04:50:01;;;;;;;32.25;23.83;;;;;;;9.57;100.00;100737.78;5207736;28;20018;-69
2022/11/15 04:52:31;;;;;;;27.23;22.15;;;;;;;9.57;100.00;100732.38;5207163;28;20021;-69
2022/11/15 04:55:02;;;;;;;25.08;23.05;;;;;;;9.61;100.00;100734.34;5206686;28;20040;-69
2022/11/15 04:57:32;;;;;;;26.55;23.67;;;;;;;9.59;100.00;100732.94;5208490;28;20029;-68
2022/11/15 05:00:09;;;;;;;27.17;24.63;;;;;;;9.60;100.00;100732.69;5206623;28;20117;-72
2022/11/15 05:05:29;;;;;;;22.10;20.08;;;;;;;9.52;100.00;100724.28;5207743;28;20082;-69
2022/11/15 05:07:59;;;;;;;24.58;19.77;;;;;;;9.57;100.00;100727.81;5206957;28;20025;-69
2022/11/15 05:10:30;;;;;;;25.30;22.52;;;;;;;9.40;100.00;100711.72;5206586;28;20472;-72
2022/11/15 05:13:00;;;;;;;23.65;21.17;;;;;;;9.54;100.00;100725.63;5206680;28;20465;-72
2022/11/15 05:15:31;;;;;;;22.05;19.90;;;;;;;9.54;100.00;100724.81;5206371;28;20485;-69
2022/11/15 05:18:01;;;;;;;22.08;19.88;;;;;;;9.43;100.00;100710.41;5206226;28;20026;-68
2022/11/15 05:20:31;;;;;;;20.58;18.77;;;;;;;9.51;100.00;100733.41;5220719;28;20493;-69
2022/11/15 05:23:02;;;;;;;21.13;19.13;;;;;;;9.52;100.00;100732.34;5218276;28;20029;-72
2022/11/15 05:25:33;;;;;;;21.40;19.25;;;;;;;9.24;100.00;100690.25;5206591;28;20021;-70
2022/11/15 05:28:03;;;;;;;20.02;18.33;;;;;;;9.49;100.00;100741.75;5206567;28;20037;-70
2022/11/15 05:30:34;;;;;;;21.55;19.25;;;;;;;9.38;100.00;100732.72;5208873;28;20400;-70
2022/11/15 05:33:04;;;;;;;18.27;16.50;;;;;;;9.43;100.00;100740.88;5214347;28;20029;-70
2022/11/15 05:35:41;;;;;;;19.73;17.73;;;;;;;9.39;100.00;100745.13;5214666;28;20108;-73
2022/11/15 05:38:11;;;;;;;19.15;16.67;;;;;;;9.33;100.00;100740.75;5209100;28;20030;-72
2022/11/15 05:40:45;;;;;;;21.42;19.52;;;;;;;9.29;100.00;100731.53;5216858;28;20033;-70
2022/11/15 05:43:15;;;;;;;18.35;16.02;;;;;;;9.31;100.00;100736.66;5223519;28;20039;-74
2022/11/15 05:45:46;;;;;;;19.65;17.77;;;;;;;9.28;100.00;100737.97;5226246;28;20029;-70
2022/11/15 05:48:17;;;;;;;25.10;19.83;;;;;;;9.26;100.00;100734.72;5225814;28;20171;-70
2022/11/15 05:50:48;;;;;;;20.50;18.85;;;;;;;9.11;100.00;100724.56;5226189;28;20031;-72
2022/11/15 05:53:22;;;;;;;17.83;16.35;;;;;;;9.26;100.00;100742.81;5225477;28;20070;-70
2022/11/15 05:55:52;;;;;;;20.02;16.13;;;;;;;9.11;100.00;100719.19;5227427;28;20104;-72
2022/11/15 05:58:22;;;;;;;20.50;18.35;;;;;;;9.24;100.00;100744.16;5225608;28;20070;-71
2022/11/15 06:00:54;;;;;;;21.73;19.50;;;;;;;9.21;100.00;100734.69;5225396;28;20059;-70
2022/11/15 06:03:25;;;;;;;20.58;18.40;;;;;;;9.21;100.00;100742.75;5225769;28;20124;-70
2022/11/15 06:05:56;;;;;;;20.90;19.15;;;;;;;9.20;100.00;100740.31;5225959;28;20115;-70
2022/11/15 06:08:27;;;;;;;21.92;19.20;;;;;;;9.18;100.00;100742.44;5226461;28;20025;-69
2022/11/15 06:11:03;;;;;;;19.00;17.38;;;;;;;8.93;100.00;100707.91;5224540;28;20055;-69
2022/11/15 06:13:34;;;;;;;25.08;22.73;;;;;;;9.11;100.00;100745.31;5226232;28;20021;-69
2022/11/15 06:16:05;;;;;;;21.98;20.02;;;;;;;9.09;100.00;100742.06;5224816;28;20024;-70
2022/11/15 06:18:36;;;;;;;22.20;20.10;;;;;;;9.06;100.00;100740.66;5225659;28;20115;-70
2022/11/15 06:21:06;;;;;;;18.40;16.67;;;;;;;8.99;100.00;100747.28;5225710;28;20488;-70
2022/11/15 06:23:37;;;;;;;20.65;16.77;;;;;;;9.02;100.00;100744.91;5225913;28;20060;-70
2022/11/15 06:26:07;;;;;;;18.60;17.10;;;;;;;8.85;100.00;100732.56;5211413;28;20025;-69
2022/11/15 06:28:38;;;;;;;18.42;16.15;;;;;;;8.98;100.00;100751.84;5205329;28;20422;-70
2022/11/15 06:31:10;;;;;;;14.80;13.60;;;;;;;8.77;100.00;100720.31;5206501;28;20489;-69
2022/11/15 06:33:41;;;;;;;18.02;13.85;;;;;;;8.95;100.00;100762.34;5205101;28;20259;-69
2022/11/15 06:36:16;;;;;;;18.90;17.10;;;;;;;8.86;100.00;100747.66;5204365;28;20517;-69
2022/11/15 06:38:47;;;;;;;15.00;13.55;;;;;;;8.80;100.00;100742.19;5204478;28;20024;-69
2022/11/15 06:41:18;;;;;;;14.13;12.73;;;;;;;8.85;100.00;100746.03;5204998;28;20030;-69
2022/11/15 06:43:48;;;;;;;14.32;13.02;;;;;;;8.80;100.00;100738.69;5205150;28;20030;-69
2022/11/15 06:46:18;;;;;;;18.02;16.73;;;;;;;8.92;100.00;100760.94;5206101;28;20021;-68
2022/11/15 06:48:53;;;;;;;20.77;15.35;;;;;;;8.85;100.00;100754.09;5205436;28;20067;-69
2022/11/15 06:51:23;;;;;;;15.32;13.85;;;;;;;8.76;100.00;100741.03;5204133;28;20171;-69
2022/11/15 06:53:54;;;;;;;15.88;14.57;;;;;;;8.87;100.00;100758.19;5204698;28;20120;-69
2022/11/15 06:56:24;;;;;;;16.25;14.73;;;;;;;8.70;100.00;100752.78;5205135;28;20330;-69
2022/11/15 06:58:55;;;;;;;13.90;12.68;;;;;;;8.75;100.00;100768.22;5205143;28;20022;-69
2022/11/15 07:01:25;;;;;;;15.93;14.63;;;;;;;8.68;100.00;100762.19;5204871;28;20025;-68
2022/11/15 07:03:56;;;;;;;18.45;14.25;;;;;;;8.75;100.00;100768.22;5206453;28;20025;-69
2022/11/15 07:06:26;;;;;;;14.57;12.93;;;;;;;8.69;100.00;100755.72;5204724;28;20033;-66
2022/11/15 07:08:57;;;;;;;12.57;11.35;;;;;;;8.67;100.00;100760.53;5204862;28;20021;-65
2022/11/15 07:11:27;;;;;;;13.82;12.82;;;;;;;8.54;100.00;100759.00;5204880;28;20037;-65
2022/11/15 07:13:57;;;;;;;12.82;11.85;;;;;;;8.40;100.00;100760.38;5205524;28;20028;-66
2022/11/15 07:16:28;;;;;;;15.52;14.23;;;;;;;8.36;100.00;100764.66;5206126;28;20118;-65
2022/11/15 07:18:58;;;;;;;13.68;12.57;;;;;;;8.26;100.00;100767.94;5204454;28;20025;-67
2022/11/15 07:21:29;;;;;;;11.55;10.40;;;;;;;8.17;100.00;100782.00;5204402;28;20025;-65
2022/11/15 07:23:59;;;;;;;15.73;12.02;;;;;;;8.07;100.00;100777.28;5204145;28;20017;-65
2022/11/15 07:26:30;;;;;;;14.63;13.43;;;;;;;8.01;100.00;100787.13;5204604;28;20033;-66
2022/11/15 07:29:00;;;;;;;14.25;12.57;;;;;;;7.96;100.00;100786.22;5221002;22;20005;-70
2022/11/15 07:31:31;;;;;;;14.45;12.93;;;;;;;7.93;100.00;100782.13;5229453;28;20040;-70
2022/11/15 07:34:01;;;;;;;14.13;12.93;;;;;;;7.95;100.00;100795.34;5211622;28;20054;-70
2022/11/15 07:36:32;;;;;;;12.88;11.75;;;;;;;7.91;100.00;100784.25;5212577;28;20021;-70
2022/11/15 07:39:02;;;;;;;12.57;10.20;;;;;;;7.80;100.00;100777.84;5212268;28;20022;-69
2022/11/15 07:41:33;;;;;;;14.98;13.65;;;;;;;7.88;100.00;100794.66;5212016;28;20029;-70
2022/11/15 07:44:03;;;;;;;14.00;12.63;;;;;;;7.73;100.00;100771.00;5211449;28;20188;-70
2022/11/15 07:46:34;;;;;;;12.70;11.60;;;;;;;7.78;100.00;100763.84;5211434;28;20035;-70
2022/11/15 07:49:04;;;;;;;13.20;12.20;;;;;;;7.83;100.00;100762.28;5211902;28;20047;-70
2022/11/15 07:51:35;;;;;;;16.70;12.90;;;;;;;7.67;100.00;100726.25;5212659;28;20025;-70
2022/11/15 07:54:05;;;;;;;13.35;12.27;;;;;;;7.84;100.00;100743.22;5211919;28;20021;-70
2022/11/15 07:56:36;;;;;;;16.27;14.57;;;;;;;8.01;100.00;100767.50;5212432;28;20243;-70
2022/11/15 07:59:06;;;;;;;19.58;14.35;;;;;;;7.95;100.00;100746.94;5211634;28;20021;-73
2022/11/15 08:01:36;;;;;;;15.20;13.85;;;;;;;8.14;100.00;100775.25;5211724;28;20060;-71
2022/11/15 08:04:07;;;;;;;16.02;14.80;;;;;;;7.95;100.00;100738.88;5209912;28;20546;-71
2022/11/15 08:06:37;;;;;;;16.05;14.77;;;;;;;8.05;100.00;100758.69;5209670;28;20100;-70
2022/11/15 08:09:08;;;;;;;15.15;13.55;;;;;;;8.21;100.00;100772.41;5208947;28;20021;-70
2022/11/15 08:11:38;;;;;;;17.15;15.52;;;;;;;8.21;100.00;100767.03;5210432;28;20399;-70
2022/11/15 08:14:09;;;;;;;13.57;12.57;;;;;;;8.23;100.00;100770.28;5210737;28;20029;-70
2022/11/15 08:16:39;;;;;;;12.35;11.15;;;;;;;8.15;100.00;100741.91;5212090;28;20477;-70
2022/11/15 08:19:10;;;;;;;11.93;10.68;;;;;;;8.27;100.00;100755.31;5210523;28;20032;-70
2022/11/15 08:21:40;;;;;;;11.93;11.02;;;;;;;8.33;100.00;100754.38;5210676;28;20044;-69
2022/11/15 08:24:11;;;;;;;12.43;11.63;;;;;;;8.20;100.00;100725.88;5211833;28;20384;-70
2022/11/15 08:26:41;;;;;;;14.38;11.20;;;;;;;8.23;100.00;100727.25;5212061;28;20025;-70
2022/11/15 08:29:11;;;;;;;11.18;10.18;;;;;;;8.28;100.00;100703.13;5210331;28;20293;-70
2022/11/15 08:31:42;;;;;;;13.23;11.93;;;;;;;8.56;100.00;100731.84;5211528;28;20115;-70
2022/11/15 08:34:12;;;;;;;12.77;11.88;;;;;;;8.54;100.00;100715.13;5211013;28;20056;-70
2022/11/15 08:36:43;;;;;;;12.45;11.48;;;;;;;8.69;100.00;100715.34;5212279;28;20528;-70
2022/11/15 08:39:13;;;;;;;12.18;11.10;;;;;;;8.74;100.00;100724.31;5231870;28;20473;-70
2022/11/15 08:41:44;;;;;;;11.48;10.57;;;;;;;8.83;100.00;100713.94;5210273;28;20423;-70
2022/11/15 08:44:14;;;;;;;10.88;9.90;;;;;;;8.86;100.00;100710.78;5209936;28;20300;-70
2022/11/15 08:46:46;;;;;;;11.77;9.70;;;;;;;8.80;100.00;100696.41;5213766;28;20029;-70
2022/11/15 08:49:16;;;;;;;10.23;9.35;;;;;;;8.94;100.00;100709.53;5215368;28;20443;-70
2022/11/15 08:51:47;;;;;;;9.32;8.70;;;;;;;9.02;100.00;100709.09;5214165;28;20321;-69
2022/11/15 08:54:17;;;;;;;8.32;6.72;;;;;;;9.06;100.00;100696.75;5213245;28;20033;-70
2022/11/15 08:56:48;;;;;;;8.10;6.97;;;;;;;9.07;100.00;100696.50;5214819;28;20021;-69
2022/11/15 08:59:18;;;;;;;7.82;7.18;;;;;;;9.10;100.00;100689.81;5213993;28;20021;-70
2022/11/15 09:01:49;;;;;;;5.45;5.10;;;;;;;9.07;100.00;100679.53;5214299;28;20041;-70
2022/11/15 09:04:19;;;;;;;8.63;6.38;;;;;;;9.04;100.00;100680.03;5216086;28;20116;-71
2022/11/15 09:06:50;;;;;;;5.45;5.00;;;;;;;9.00;100.00;100668.94;5215382;28;20079;-69
2022/11/15 09:09:20;;;;;;;5.05;4.75;;;;;;;9.09;100.00;100688.16;5212775;28;20410;-70
2022/11/15 09:11:51;;;;;;;6.50;5.95;;;;;;;9.03;100.00;100667.63;5213246;28;20477;-69
2022/11/15 09:14:21;;;;;;;10.25;6.65;;;;;;;9.19;100.00;100676.72;5210292;28;20039;-68
2022/11/15 09:16:52;;;;;;;5.60;4.80;;;;;;;9.25;100.00;100668.41;5209215;28;20452;-69
2022/11/15 09:19:22;;;;;;;6.03;5.32;;;;;;;9.26;100.00;100667.34;5206936;28;20029;-69
2022/11/15 09:21:53;;;;;;;4.38;4.18;;;;;;;9.35;100.00;100671.25;5211589;28;20204;-69
2022/11/15 09:24:23;;;;;;;4.85;4.45;;;;;;;9.33;100.00;100651.81;5212147;28;20079;-69
2022/11/15 09:26:54;;;;;;;3.78;3.58;;;;;;;9.48;100.00;100659.25;5211387;28;20024;-69
2022/11/15 09:29:24;;;;;;;5.10;4.70;;;;;;;9.56;100.00;100682.25;5211430;28;20021;-69
2022/11/15 09:31:55;;;;;;;4.35;4.03;;;;;;;9.48;100.00;100653.88;5211373;28;20032;-69
2022/11/15 09:34:25;;;;;;;5.80;4.05;;;;;;;9.66;100.00;100669.69;5229851;28;20094;-69
2022/11/15 09:36:56;;;;;;;4.03;3.28;;;;;;;9.64;100.00;100668.31;5211701;28;20028;-68
2022/11/15 09:39:26;;;;;;;3.53;3.33;;;;;;;9.74;100.00;100666.53;5210869;28;20040;-68
2022/11/15 09:42:12;;;;;;;4.75;3.38;;;;;;;9.79;100.00;100666.59;5228849;28;20063;-68
2022/11/15 09:44:48;;;;;;;3.50;3.30;;;;;;;9.85;100.00;100675.53;5210245;28;20048;-68
2022/11/15 09:47:37;;;;;;;3.33;3.08;;;;;;;10.00;100.00;100674.84;5209851;28;20033;-68
2022/11/15 09:50:11;;;;;;;6.68;4.32;;;;;;;9.98;100.00;100642.75;5210593;28;20107;-69
2022/11/15 09:52:45;;;;;;;2.67;2.45;;;;;;;10.19;100.00;100659.09;5210364;28;20036;-69
2022/11/15 09:55:21;;;;;;;6.22;3.03;;;;;;;10.24;100.00;100646.47;5210163;28;20024;-68
2022/11/15 09:58:03;;;;;;;5.63;3.65;;;;;;;10.31;100.00;100646.28;5210298;28;20543;-69
2022/11/15 10:00:39;;;;;;;3.80;3.22;;;;;;;10.25;100.00;100628.41;5210335;28;20548;-69
2022/11/15 10:03:13;;;;;;;3.75;3.45;;;;;;;10.41;100.00;100649.81;5210389;28;20083;-69
2022/11/15 10:05:47;;;;;;;3.17;2.95;;;;;;;10.47;100.00;100647.97;5209289;28;20032;-69
2022/11/15 10:08:28;;;;;;;7.03;3.38;;;;;;;10.50;100.00;100642.06;5210358;28;20037;-69
2022/11/15 10:11:09;;;;;;;6.85;3.42;;;;;;;10.55;100.00;100636.69;5209978;28;20561;-69
2022/11/15 10:13:46;;;;;;;3.63;3.28;;;;;;;10.58;100.00;100635.38;5209542;28;20067;-68
2022/11/15 10:16:46;;;;;;;5.95;2.65;;;;;;;10.68;100.00;100628.13;5209175;28;20380;-69
2022/11/15 10:19:30;;;;;;;4.20;3.45;;;;;;;10.80;100.00;100626.03;5209944;28;20032;-70
2022/11/15 10:22:13;;;;;;;4.65;3.03;;;;;;;10.94;100.00;100622.84;5209652;28;20040;-69
2022/11/15 10:24:46;;;;;;;3.78;3.17;;;;;;;11.02;100.00;100612.34;5209691;28;20029;-69
2022/11/15 10:27:18;;;;;;;5.68;3.25;;;;;;;11.15;100.00;100611.03;5209613;28;20504;-69
2022/11/15 10:29:50;;;;;;;4.72;2.58;;;;;;;11.23;100.00;100604.31;5209999;28;20492;-69
2022/11/15 10:32:21;;;;;;;2.97;2.78;;;;;;;11.38;100.00;100607.03;5208770;28;20036;-68
2022/11/15 10:34:51;;;;;;;7.60;2.80;;;;;;;11.45;100.00;100608.41;5209549;28;20025;-69
2022/11/15 10:37:30;;;;;;;2.95;2.83;;;;;;;11.48;100.00;100597.06;5209380;28;20036;-69
2022/11/15 10:40:14;;;;;;;2.92;2.47;;;;;;;11.41;100.00;100591.09;5208904;28;20083;-69
2022/11/15 10:42:44;;;;;;;2.50;2.30;;;;;;;11.36;100.00;100588.38;5209186;28;20033;-69
2022/11/15 10:45:28;;;;;;;3.20;2.95;;;;;;;11.38;100.00;100574.59;5209110;28;20239;-67
2022/11/15 10:48:14;;;;;;;4.32;3.55;;;;;;;11.44;100.00;100574.34;5209184;28;20032;-68
2022/11/15 10:50:46;;;;;;;5.53;3.83;;;;;;;11.54;100.00;100564.63;5209201;28;20021;-69
2022/11/15 10:53:43;;;;;;;2.58;2.38;;;;;;;11.65;100.00;100548.09;5227051;28;20052;-68
2022/11/15 10:56:15;;;;;;;3.10;2.80;;;;;;;11.74;100.00;100546.50;5208979;28;20037;-67
2022/11/15 10:58:52;;;;;;;2.58;2.47;;;;;;;11.66;100.00;100525.38;5209100;28;20025;-68
2022/11/15 11:01:24;;;;;;;7.80;2.50;;;;;;;11.76;100.00;100536.25;5208958;28;20056;-70
2022/11/15 11:03:59;;;;;;;4.18;2.83;;;;;;;11.77;100.00;100539.75;5208676;28;20029;-69
2022/11/15 11:06:45;;;;;;;2.65;2.45;;;;;;;11.64;100.00;100514.03;5209042;28;20035;-70
2022/11/15 11:09:42;;;;;;;11.93;4.28;;;;;;;11.80;100.00;100528.41;5208685;28;20035;-70
2022/11/15 11:12:12;;;;;;;3.17;2.85;;;;;;;11.74;100.00;100513.22;5197916;28;20037;-69
2022/11/15 11:14:43;;;;;;;4.57;2.78;;;;;;;11.73;100.00;100517.81;5208374;28;20032;-70
2022/11/15 11:17:23;;;;;;;2.63;2.53;;;;;;;11.77;100.00;100518.13;5208538;28;20028;-69
2022/11/15 11:20:12;;;;;;;9.85;2.40;;;;;;;11.74;100.00;100515.94;5208338;28;20108;-69
2022/11/15 11:23:34;;;;;;;2.90;2.70;;;;;;;11.71;100.00;100509.16;5208451;28;20091;-69
2022/11/15 11:26:22;;;;;;;2.85;2.72;;;;;;;11.71;100.00;100494.81;5136272;28;20029;-71
2022/11/15 11:29:18;;;;;;;3.33;3.10;;;;;;;11.62;100.00;100491.03;5225931;28;20063;-69
2022/11/15 11:32:09;;;;;;;3.40;3.10;;;;;;;11.65;100.00;100482.38;5208041;28;20392;-69
2022/11/15 11:34:56;;;;;;;4.45;3.33;;;;;;;11.64;100.00;100475.34;5207872;28;20477;-69
2022/11/15 11:37:36;;;;;;;2.40;2.30;;;;;;;11.64;100.00;100470.75;5226638;28;20173;-69
2022/11/15 11:40:24;;;;;;;2.55;2.45;;;;;;;11.65;100.00;100460.75;5226276;28;20533;-73
2022/11/15 11:43:03;;;;;;;2.90;2.70;;;;;;;11.70;100.00;100452.63;5208284;28;20029;-69
2022/11/15 11:45:34;;;;;;;3.40;3.30;;;;;;;11.77;100.00;100455.91;5207585;28;20035;-71
2022/11/15 11:48:17;;;;;;;3.55;3.13;;;;;;;11.79;100.00;100445.63;5208685;28;20032;-70
2022/11/15 11:50:48;;;;;;;3.33;3.13;;;;;;;11.79;100.00;100396.94;5225984;28;20031;-69
2022/11/15 11:53:30;;;;;;;3.95;2.88;;;;;;;11.88;100.00;100416.91;5208232;28;20087;-70